Huvudsida
METAR-TAF:

METAR-TAF

Flygplatser :

Kittilä flygplats

Kittilä, Finland

latitud: 67-42N, longitud: 024-51E, höjd: 196 m

Aktuellt väderrapport

Denna rapport gjordes för 40 minuter sedan, klockan 18:50 UTC
Vind 8 kt från sydväst
Temperatur 5°C
Fuktighet 75%
Tryck 994 hPa
Sikt 10 km eller mer
Inga moln under 1 500 m eller inga cumulonimbus

METAR: EFKT 211850Z AUTO 22008KT CAVOK 05/01 Q0994

Tid: 22:30 (19:30 UTC)

Väderprognos

Denna rapport gjordes för 15 timmar och 32 minuter sedan, klockan 03:58 UTC
Prognos gäller från 21 kl. 04 UTC till 21 kl. 07 UTC
Vind 12 kt från syd i byarna ända upp till 22 kt
Sikt 10 km eller mer
Mulet på en höjd av 400 ft
lätt regn
Temporärt
från 21 kl. 04 UTC till 21 kl. 07 UTC
Sikt: 4000 m
Spridda moln på en höjd av 400 ft
Mulet på en höjd av 800 ft
regn, duggregn

TAF: EFKT 210358Z 2104/2107 19012G22KT 9999 -RA OVC004 TEMPO 2104/2107 4000 RADZ SCT004 OVC008

Aktuella väderrapporter och prognoser från 4000 flygplatser (METAR- och TAF-rapporter).

De tillgängliga stationerna syns som gula och röda prickar på kartan.

För musen över prickarna för att se namnen på stationerna.

Klicka sedan för att få väderrapporter och prognoser.

För att ändra kartan: Klicka på de gröna knapparna med ett svart kors på för att zooma in; den gröna knappen med ett streck på för att zooma ut; eller på de gröna pilarna för angränsande kartor.


METAR-TAF: